createdAt,value
2018-06-13T00:01:34.325Z,16.90
2018-06-13T00:04:01.985Z,16.90
2018-06-13T00:06:29.569Z,16.90
2018-06-13T00:08:57.099Z,16.90
2018-06-13T00:11:24.715Z,16.90
2018-06-13T00:13:52.245Z,16.80
2018-06-13T00:16:19.773Z,16.80
2018-06-13T00:18:47.373Z,16.80
2018-06-13T00:21:14.917Z,16.80
2018-06-13T00:23:42.441Z,16.80
2018-06-13T00:26:10.052Z,16.80
2018-06-13T00:28:37.586Z,16.80
2018-06-13T00:31:05.253Z,16.90
2018-06-13T00:33:32.909Z,16.90
2018-06-13T00:36:00.433Z,16.80
2018-06-13T00:38:28.004Z,16.80
2018-06-13T00:40:55.661Z,16.80
2018-06-13T00:43:23.221Z,16.80
2018-06-13T00:45:50.778Z,16.80
2018-06-13T00:48:18.389Z,16.80
2018-06-13T00:50:45.957Z,16.80
2018-06-13T00:53:13.489Z,16.80
2018-06-13T00:55:52.589Z,16.80
2018-06-13T00:58:20.164Z,16.70
2018-06-13T01:00:47.717Z,16.70
2018-06-13T01:03:15.285Z,16.80
2018-06-13T01:05:42.862Z,16.70
2018-06-13T01:08:10.431Z,16.70
2018-06-13T01:10:38.090Z,16.70
2018-06-13T01:13:05.756Z,16.70
2018-06-13T01:15:33.325Z,16.70
2018-06-13T01:18:00.912Z,16.60
2018-06-13T01:20:28.452Z,16.60
2018-06-13T01:22:55.993Z,16.60
2018-06-13T01:25:23.670Z,16.60
2018-06-13T01:27:51.221Z,16.50
2018-06-13T01:30:18.825Z,16.50
2018-06-13T01:32:46.518Z,16.50
2018-06-13T01:35:14.085Z,16.50
2018-06-13T01:37:41.615Z,16.40
2018-06-13T01:40:09.234Z,16.40
2018-06-13T01:42:36.755Z,16.40
2018-06-13T01:45:04.482Z,16.40
2018-06-13T01:47:32.051Z,16.40
2018-06-13T01:49:59.624Z,16.40
2018-06-13T01:52:27.240Z,16.40
2018-06-13T01:54:54.849Z,16.40
2018-06-13T01:57:22.421Z,16.40
2018-06-13T01:59:49.959Z,16.40
2018-06-13T02:04:45.127Z,16.50
2018-06-13T02:07:12.663Z,16.40
2018-06-13T02:09:40.249Z,16.40
2018-06-13T02:12:08.237Z,16.40
2018-06-13T02:14:35.801Z,16.40
2018-06-13T02:17:03.437Z,16.40
2018-06-13T02:19:30.973Z,16.30
2018-06-13T02:21:58.525Z,16.30
2018-06-13T02:24:26.089Z,16.30
2018-06-13T02:26:54.540Z,16.30
2018-06-13T02:29:22.257Z,16.30
2018-06-13T02:31:49.834Z,16.30
2018-06-13T02:34:17.404Z,16.30
2018-06-13T02:36:44.983Z,16.20
2018-06-13T02:39:12.551Z,16.30
2018-06-13T02:41:40.088Z,16.30
2018-06-13T02:46:35.215Z,16.20
2018-06-13T02:49:02.954Z,16.20
2018-06-13T02:51:30.494Z,16.20
2018-06-13T02:53:58.126Z,16.20
2018-06-13T02:56:25.666Z,16.20
2018-06-13T02:58:53.183Z,16.10
2018-06-13T03:01:20.782Z,16.20
2018-06-13T03:03:48.376Z,16.10
2018-06-13T03:06:15.898Z,16.10
2018-06-13T03:08:43.485Z,16.20
2018-06-13T03:11:11.022Z,16.10
2018-06-13T03:13:38.629Z,16.10
2018-06-13T03:16:06.189Z,16.10
2018-06-13T03:18:33.754Z,16.10
2018-06-13T03:21:01.289Z,16.10
2018-06-13T03:23:29.170Z,16.00
2018-06-13T03:25:56.669Z,16.00
2018-06-13T03:28:24.242Z,16.00
2018-06-13T03:30:51.788Z,16.00
2018-06-13T03:33:19.453Z,16.00
2018-06-13T03:35:46.990Z,16.00
2018-06-13T03:38:14.550Z,16.00
2018-06-13T03:40:42.152Z,16.00
2018-06-13T03:43:09.734Z,15.90
2018-06-13T03:45:37.350Z,16.00
2018-06-13T03:48:04.914Z,15.90
2018-06-13T03:50:32.474Z,15.90
2018-06-13T03:53:00.087Z,15.90
2018-06-13T03:55:27.747Z,15.80
2018-06-13T03:57:55.325Z,15.80
2018-06-13T04:00:22.900Z,15.80
2018-06-13T04:02:50.417Z,15.80
2018-06-13T04:05:18.044Z,15.80
2018-06-13T04:07:45.657Z,15.80
2018-06-13T04:10:13.327Z,15.80
2018-06-13T04:12:40.937Z,15.80
2018-06-13T04:15:08.527Z,15.80
2018-06-13T04:17:36.072Z,15.80
2018-06-13T04:20:03.708Z,15.90
2018-06-13T04:22:31.409Z,15.90
2018-06-13T04:24:58.916Z,16.00
2018-06-13T04:27:26.779Z,16.10
2018-06-13T04:29:54.571Z,16.20
2018-06-13T04:32:22.149Z,16.70
2018-06-13T04:34:49.669Z,17.70
2018-06-13T04:37:17.392Z,19.20
2018-06-13T04:39:45.240Z,20.60
2018-06-13T04:42:12.861Z,21.80
2018-06-13T04:44:40.510Z,22.30
2018-06-13T04:47:08.175Z,22.60
2018-06-13T04:49:35.734Z,23.40
2018-06-13T04:52:03.322Z,24.60
2018-06-13T04:54:30.882Z,25.60
2018-06-13T04:56:58.599Z,26.40
2018-06-13T04:59:26.265Z,27.10
2018-06-13T05:01:53.901Z,27.70
2018-06-13T05:04:21.519Z,28.10
2018-06-13T05:06:49.119Z,28.60
2018-06-13T05:09:16.693Z,29.00
2018-06-13T05:11:44.294Z,29.30
2018-06-13T05:14:11.883Z,29.60
2018-06-13T05:16:39.499Z,29.90
2018-06-13T05:19:07.074Z,30.10
2018-06-13T05:21:34.926Z,30.30
2018-06-13T05:24:02.683Z,30.40
2018-06-13T05:26:30.358Z,30.30
2018-06-13T05:28:57.947Z,30.40
2018-06-13T05:31:25.476Z,30.00
2018-06-13T05:33:53.288Z,29.50
2018-06-13T05:36:20.873Z,29.00
2018-06-13T05:38:48.419Z,28.70
2018-06-13T05:41:16.481Z,28.20
2018-06-13T05:43:44.169Z,27.70
2018-06-13T05:46:11.823Z,27.10
2018-06-13T05:48:39.411Z,26.80
2018-06-13T05:53:34.561Z,26.00
2018-06-13T05:56:02.485Z,25.80
2018-06-13T05:58:30.239Z,25.80
2018-06-13T06:00:57.881Z,25.90
2018-06-13T06:03:25.465Z,26.10
2018-06-13T06:05:53.065Z,26.40
2018-06-13T06:10:48.633Z,26.30
2018-06-13T06:13:16.284Z,25.80
2018-06-13T06:15:44.024Z,25.30
2018-06-13T06:18:11.927Z,24.80
2018-06-13T06:20:39.577Z,24.20
2018-06-13T06:23:07.114Z,23.80
2018-06-13T06:25:34.682Z,23.50
2018-06-13T06:28:02.258Z,23.30
2018-06-13T06:30:29.844Z,23.20
2018-06-13T06:32:57.409Z,23.10
2018-06-13T06:35:25.020Z,23.20
2018-06-13T06:37:52.592Z,23.20
2018-06-13T06:40:20.162Z,23.20
2018-06-13T06:42:47.841Z,23.10
2018-06-13T06:45:15.437Z,22.90
2018-06-13T06:47:43.008Z,22.60
2018-06-13T06:50:10.856Z,22.40
2018-06-13T06:52:38.479Z,22.10
2018-06-13T06:55:06.070Z,21.90
2018-06-13T07:00:01.306Z,21.50
2018-06-13T07:02:28.866Z,21.20
2018-06-13T07:04:56.456Z,21.10
2018-06-13T07:07:24.028Z,20.80
2018-06-13T07:09:51.824Z,20.60
2018-06-13T07:12:19.928Z,20.40
2018-06-13T07:14:47.519Z,20.20
2018-06-13T07:17:15.227Z,20.00
2018-06-13T07:19:42.914Z,19.90
2018-06-13T07:24:38.454Z,19.70
2018-06-13T07:27:06.221Z,19.60
2018-06-13T07:29:33.777Z,19.50
2018-06-13T07:32:01.349Z,19.50
2018-06-13T07:34:29.033Z,19.40
2018-06-13T07:36:56.596Z,19.40
2018-06-13T07:39:24.149Z,19.40
2018-06-13T07:41:51.727Z,19.40
2018-06-13T07:44:19.276Z,19.50
2018-06-13T07:46:47.049Z,19.40
2018-06-13T07:49:14.656Z,19.30
2018-06-13T07:51:42.287Z,19.20
2018-06-13T07:54:09.859Z,19.10
2018-06-13T07:56:37.613Z,19.10
2018-06-13T07:59:05.485Z,19.20
2018-06-13T08:01:33.219Z,19.30
2018-06-13T08:04:00.857Z,19.30
2018-06-13T08:06:28.461Z,19.30
2018-06-13T08:08:56.195Z,19.20
2018-06-13T08:11:23.765Z,19.10
2018-06-13T08:13:51.657Z,19.10
2018-06-13T08:16:19.269Z,19.10
2018-06-13T08:18:46.858Z,19.10
2018-06-13T08:21:14.690Z,19.10
2018-06-13T08:23:42.371Z,19.00
2018-06-13T08:26:10.106Z,18.90
2018-06-13T08:28:37.616Z,18.90
2018-06-13T08:31:05.256Z,18.80
2018-06-13T08:33:32.873Z,18.70
2018-06-13T08:36:00.491Z,18.70
2018-06-13T08:38:28.105Z,18.80
2018-06-13T08:40:55.697Z,18.70
2018-06-13T08:43:23.309Z,18.80
2018-06-13T08:45:51.309Z,18.90
2018-06-13T08:48:18.993Z,19.00
2018-06-13T08:50:46.557Z,19.10
2018-06-13T08:53:14.105Z,19.10
2018-06-13T08:55:41.921Z,19.20
2018-06-13T08:58:09.495Z,19.40
2018-06-13T09:00:37.336Z,19.40
2018-06-13T09:03:05.048Z,19.40
2018-06-13T09:05:32.793Z,19.40
2018-06-13T09:08:00.374Z,19.20
2018-06-13T09:10:28.027Z,19.10
2018-06-13T09:12:55.572Z,19.00
2018-06-13T09:15:23.094Z,18.90
2018-06-13T09:17:50.738Z,18.80
2018-06-13T09:20:18.462Z,18.80
2018-06-13T09:22:46.324Z,18.90
2018-06-13T09:25:14.112Z,19.00
2018-06-13T09:27:41.907Z,19.10
2018-06-13T09:30:09.506Z,19.20
2018-06-13T09:32:37.159Z,19.40
2018-06-13T09:35:04.824Z,19.60
2018-06-13T09:37:32.400Z,19.70
2018-06-13T09:40:00.055Z,19.90
2018-06-13T09:42:27.612Z,20.20
2018-06-13T09:44:55.154Z,20.50
2018-06-13T09:47:23.456Z,20.80
2018-06-13T09:49:50.339Z,20.90
2018-06-13T09:52:17.927Z,20.90
2018-06-13T09:54:45.552Z,20.80
2018-06-13T09:57:13.114Z,20.60
2018-06-13T09:59:46.288Z,20.40
2018-06-13T10:02:16.757Z,20.30
2018-06-13T10:04:44.770Z,20.10
2018-06-13T10:07:12.318Z,20.00
2018-06-13T10:09:39.938Z,19.90
2018-06-13T10:12:07.766Z,19.70
2018-06-13T10:14:35.486Z,19.60
2018-06-13T10:17:03.182Z,19.50
2018-06-13T10:19:30.736Z,19.50
2018-06-13T10:21:58.333Z,19.50
2018-06-13T10:24:25.909Z,19.60
2018-06-13T10:26:53.453Z,19.70
2018-06-13T10:29:21.052Z,19.80
2018-06-13T10:31:48.591Z,20.00
2018-06-13T10:34:16.103Z,20.30
2018-06-13T10:36:43.650Z,20.60
2018-06-13T10:39:11.211Z,20.90
2018-06-13T10:41:38.760Z,21.20
2018-06-13T10:44:06.333Z,21.40
2018-06-13T10:46:33.885Z,21.70
2018-06-13T10:49:01.434Z,21.80
2018-06-13T10:51:29.002Z,21.80
2018-06-13T10:53:56.635Z,21.70
2018-06-13T10:56:24.195Z,21.70
2018-06-13T10:58:51.753Z,21.80
2018-06-13T11:01:19.293Z,21.90
2018-06-13T11:03:46.829Z,21.80
2018-06-13T11:06:14.405Z,21.80
2018-06-13T11:08:41.962Z,21.80
2018-06-13T11:11:09.493Z,21.70
2018-06-13T11:13:37.122Z,21.50
2018-06-13T11:16:04.669Z,21.30
2018-06-13T11:18:32.277Z,21.10
2018-06-13T11:20:59.904Z,20.90
2018-06-13T11:23:27.453Z,20.70
2018-06-13T11:25:55.042Z,20.60
2018-06-13T11:28:22.602Z,20.50
2018-06-13T11:30:50.336Z,20.30
2018-06-13T11:33:17.922Z,20.10
2018-06-13T11:35:45.488Z,20.00
2018-06-13T11:38:13.088Z,19.90
2018-06-13T11:40:40.714Z,19.90
2018-06-13T11:43:10.300Z,20.10
2018-06-13T11:45:37.875Z,20.10
2018-06-13T11:48:05.681Z,20.30
2018-06-13T11:53:00.738Z,20.80
2018-06-13T11:55:28.320Z,20.80
2018-06-13T11:57:55.970Z,20.90
2018-06-13T12:00:23.701Z,21.10
2018-06-13T12:02:51.278Z,21.10
2018-06-13T12:05:18.880Z,21.10
2018-06-13T12:07:46.490Z,21.10
2018-06-13T12:10:14.038Z,21.10
2018-06-13T12:12:41.684Z,21.00
2018-06-13T12:15:09.226Z,21.00
2018-06-13T12:17:36.782Z,20.90
2018-06-13T12:20:04.454Z,21.00
2018-06-13T12:22:32.041Z,21.00
2018-06-13T12:24:59.564Z,21.20
2018-06-13T12:27:27.258Z,21.30
2018-06-13T12:29:54.878Z,21.40
2018-06-13T12:32:22.450Z,21.50
2018-06-13T12:34:50.061Z,21.40
2018-06-13T12:37:17.610Z,21.30
2018-06-13T12:39:45.158Z,21.20
2018-06-13T12:42:12.772Z,21.10
2018-06-13T12:44:40.330Z,21.00
2018-06-13T12:47:07.918Z,21.00
2018-06-13T12:49:35.446Z,20.90
2018-06-13T12:52:03.165Z,20.90
2018-06-13T12:56:58.299Z,20.90
2018-06-13T12:59:25.874Z,20.90
2018-06-13T13:01:53.428Z,21.00
2018-06-13T13:04:21.047Z,21.00
2018-06-13T13:06:48.631Z,21.00
2018-06-13T13:09:16.198Z,21.00
2018-06-13T13:11:43.978Z,21.10
2018-06-13T13:14:11.937Z,21.20
2018-06-13T13:16:39.569Z,21.30
2018-06-13T13:19:07.160Z,21.40
2018-06-13T13:21:34.893Z,21.60
2018-06-13T13:24:02.641Z,21.70
2018-06-13T13:26:30.208Z,21.80
2018-06-13T13:28:57.933Z,21.90
2018-06-13T13:31:25.588Z,22.00
2018-06-13T13:33:53.266Z,22.00
2018-06-13T13:36:20.908Z,21.90
2018-06-13T13:38:48.549Z,21.90
2018-06-13T13:41:16.241Z,21.90
2018-06-13T13:43:43.795Z,21.90
2018-06-13T13:46:11.494Z,21.90
2018-06-13T13:48:39.083Z,21.80
2018-06-13T13:51:06.669Z,21.80
2018-06-13T13:53:34.197Z,21.60
2018-06-13T13:56:01.780Z,21.50
2018-06-13T13:58:29.329Z,21.60
2018-06-13T14:00:56.861Z,21.50
2018-06-13T14:03:24.449Z,21.60
2018-06-13T14:08:19.691Z,21.60
2018-06-13T14:10:47.321Z,21.60
2018-06-13T14:13:14.887Z,21.60
2018-06-13T14:15:42.469Z,21.60
2018-06-13T14:18:10.041Z,21.60
2018-06-13T14:20:37.744Z,21.50
2018-06-13T14:23:05.325Z,21.30
2018-06-13T14:25:32.901Z,21.00
2018-06-13T14:28:00.469Z,20.90
2018-06-13T14:30:28.045Z,20.60
2018-06-13T14:32:55.635Z,20.50
2018-06-13T14:35:23.219Z,20.30
2018-06-13T14:37:50.747Z,20.10
2018-06-13T14:40:18.373Z,20.00
2018-06-13T14:42:45.917Z,19.90
2018-06-13T14:45:13.672Z,19.80
2018-06-13T14:47:41.264Z,19.80
2018-06-13T14:50:09.071Z,19.70
2018-06-13T14:52:36.619Z,19.70
2018-06-13T14:55:04.237Z,19.70
2018-06-13T14:57:31.990Z,19.70
2018-06-13T15:02:27.169Z,19.60
2018-06-13T15:04:54.743Z,19.60
2018-06-13T15:07:22.328Z,19.60
2018-06-13T15:09:49.961Z,19.60
2018-06-13T15:12:17.619Z,19.60
2018-06-13T15:14:45.203Z,19.70
2018-06-13T15:17:12.881Z,19.80
2018-06-13T15:19:40.495Z,19.80
2018-06-13T15:22:08.336Z,19.90
2018-06-13T15:24:35.918Z,19.90
2018-06-13T15:27:03.568Z,20.00
2018-06-13T15:29:31.173Z,20.10
2018-06-13T15:31:58.795Z,20.10
2018-06-13T15:34:26.585Z,20.00
2018-06-13T15:36:54.219Z,19.90
2018-06-13T15:39:21.832Z,19.90
2018-06-13T15:41:49.432Z,19.80
2018-06-13T15:44:17.081Z,19.70
2018-06-13T15:46:44.777Z,19.60
2018-06-13T15:49:12.364Z,19.50
2018-06-13T15:51:39.970Z,19.40
2018-06-13T15:54:07.699Z,19.40
2018-06-13T15:56:35.272Z,19.30
2018-06-13T15:59:02.948Z,19.30
2018-06-13T16:01:31.025Z,19.20
2018-06-13T16:03:58.614Z,19.10
2018-06-13T16:06:26.186Z,19.10
2018-06-13T16:08:53.742Z,19.10
2018-06-13T16:11:21.398Z,19.10
2018-06-13T16:13:49.056Z,19.00
2018-06-13T16:16:16.762Z,19.10
2018-06-13T16:18:44.390Z,19.10
2018-06-13T16:21:11.980Z,19.10
2018-06-13T16:23:39.626Z,19.10
2018-06-13T16:26:07.236Z,19.20
2018-06-13T16:28:34.812Z,19.30
2018-06-13T16:31:02.516Z,19.40
2018-06-13T16:33:30.098Z,19.40
2018-06-13T16:35:57.682Z,19.50
2018-06-13T16:38:25.350Z,19.50
2018-06-13T16:40:52.934Z,19.50
2018-06-13T16:43:20.642Z,19.60
2018-06-13T16:45:48.379Z,19.60
2018-06-13T16:48:15.978Z,19.70
2018-06-13T16:50:51.957Z,19.70
2018-06-13T16:53:31.102Z,19.80
2018-06-13T16:55:59.046Z,19.80
2018-06-13T16:58:26.725Z,19.80
2018-06-13T17:00:54.317Z,19.80
2018-06-13T17:03:22.474Z,19.90
2018-06-13T17:05:50.090Z,20.00
2018-06-13T17:08:17.692Z,20.00
2018-06-13T17:10:45.319Z,20.00
2018-06-13T17:13:12.895Z,19.90
2018-06-13T17:15:40.474Z,19.90
2018-06-13T17:18:08.211Z,19.80
2018-06-13T17:20:35.832Z,19.80
2018-06-13T17:23:03.450Z,19.80
2018-06-13T17:25:31.182Z,19.70
2018-06-13T17:27:58.782Z,19.60
2018-06-13T17:30:26.386Z,19.50
2018-06-13T17:32:54.002Z,19.30
2018-06-13T17:35:21.625Z,19.10
2018-06-13T17:37:49.230Z,19.00
2018-06-13T17:40:16.845Z,18.90
2018-06-13T17:42:44.438Z,18.90
2018-06-13T17:45:12.046Z,18.80
2018-06-13T17:47:39.670Z,18.70
2018-06-13T17:50:07.234Z,18.70
2018-06-13T17:52:34.906Z,18.60
2018-06-13T17:55:02.554Z,18.70
2018-06-13T17:57:30.104Z,18.60
2018-06-13T17:59:57.712Z,18.50
2018-06-13T18:02:25.334Z,18.60
2018-06-13T18:04:52.902Z,18.50
2018-06-13T18:07:20.492Z,18.40
2018-06-13T18:09:48.098Z,18.40
2018-06-13T18:12:15.787Z,18.30
2018-06-13T18:14:43.319Z,18.30
2018-06-13T18:17:10.912Z,18.20
2018-06-13T18:19:38.618Z,18.20
2018-06-13T18:22:06.262Z,18.10
2018-06-13T18:24:34.024Z,18.00
2018-06-13T18:27:01.557Z,18.00
2018-06-13T18:29:29.103Z,18.00
2018-06-13T18:31:56.686Z,17.90
2018-06-13T18:34:24.278Z,17.90
2018-06-13T18:36:51.969Z,17.80
2018-06-13T18:39:19.557Z,17.70
2018-06-13T18:41:47.178Z,17.60
2018-06-13T18:44:14.788Z,17.60
2018-06-13T18:46:42.420Z,17.60
2018-06-13T18:49:10.117Z,17.60
2018-06-13T18:51:37.706Z,17.60
2018-06-13T18:54:05.592Z,17.50
2018-06-13T18:56:33.156Z,17.50
2018-06-13T18:59:00.733Z,17.50
2018-06-13T19:01:28.326Z,17.50
2018-06-13T19:03:55.922Z,17.50
2018-06-13T19:06:23.427Z,17.50
2018-06-13T19:08:51.076Z,17.50
2018-06-13T19:11:19.118Z,17.50
2018-06-13T19:13:46.799Z,17.50
2018-06-13T19:16:15.020Z,17.40
2018-06-13T19:18:42.583Z,17.40
2018-06-13T19:21:10.174Z,17.40
2018-06-13T19:23:37.829Z,17.30
2018-06-13T19:26:05.458Z,17.30
2018-06-13T19:28:33.448Z,17.30
2018-06-13T19:31:01.094Z,17.30
2018-06-13T19:35:56.134Z,17.20
2018-06-13T19:38:23.763Z,17.20
2018-06-13T19:40:51.307Z,17.20
2018-06-13T19:43:24.593Z,17.20
2018-06-13T19:45:52.287Z,17.20
2018-06-13T19:48:25.673Z,17.20
2018-06-13T19:50:53.223Z,17.10
2018-06-13T19:53:26.610Z,17.10
2018-06-13T19:56:00.046Z,17.10
2018-06-13T19:58:27.717Z,17.10
2018-06-13T20:00:55.307Z,17.00
2018-06-13T20:03:28.593Z,17.00
2018-06-13T20:05:56.130Z,17.00
2018-06-13T20:08:23.704Z,17.00
2018-06-13T20:10:51.322Z,16.90
2018-06-13T20:13:24.602Z,16.90
2018-06-13T20:15:58.000Z,16.90
2018-06-13T20:18:31.374Z,17.00
2018-06-13T20:20:59.153Z,17.00
2018-06-13T20:23:26.741Z,17.00
2018-06-13T20:26:00.052Z,16.90
2018-06-13T20:28:33.268Z,17.00
2018-06-13T20:31:06.785Z,17.00
2018-06-13T20:33:34.913Z,16.90
2018-06-13T20:36:04.018Z,16.90
2018-06-13T20:38:31.839Z,16.90
2018-06-13T20:40:59.470Z,16.90
2018-06-13T20:43:27.078Z,16.90
2018-06-13T20:45:54.746Z,16.90
2018-06-13T20:48:22.337Z,16.90
2018-06-13T20:50:49.946Z,16.90
2018-06-13T20:53:17.615Z,16.90
2018-06-13T20:55:45.173Z,16.90
2018-06-13T20:58:12.727Z,16.90
2018-06-13T21:00:40.526Z,16.90
2018-06-13T21:03:08.129Z,16.90
2018-06-13T21:05:35.722Z,16.90
2018-06-13T21:08:03.401Z,16.90
2018-06-13T21:10:30.952Z,16.90
2018-06-13T21:12:58.535Z,16.90
2018-06-13T21:15:26.105Z,16.90
2018-06-13T21:17:53.679Z,16.80
2018-06-13T21:20:21.300Z,16.80
2018-06-13T21:22:49.336Z,16.80
2018-06-13T21:25:16.944Z,16.80
2018-06-13T21:27:44.692Z,16.80
2018-06-13T21:30:12.558Z,16.90
2018-06-13T21:32:40.629Z,16.90
2018-06-13T21:35:08.380Z,16.90
2018-06-13T21:37:35.962Z,16.80
2018-06-13T21:40:03.647Z,16.90
2018-06-13T21:42:31.216Z,16.90
2018-06-13T21:44:59.120Z,16.90
2018-06-13T21:47:27.019Z,16.90
2018-06-13T21:49:54.608Z,16.90
2018-06-13T21:52:22.292Z,16.90
2018-06-13T21:54:49.852Z,16.90
2018-06-13T21:57:17.423Z,16.90
2018-06-13T21:59:45.293Z,16.90
2018-06-13T22:02:13.004Z,16.90
2018-06-13T22:04:40.591Z,16.90
2018-06-13T22:07:08.197Z,16.90
2018-06-13T22:09:35.999Z,16.90
2018-06-13T22:12:03.575Z,16.80
2018-06-13T22:14:31.146Z,16.80
2018-06-13T22:16:58.717Z,16.80
2018-06-13T22:19:26.307Z,16.80
2018-06-13T22:21:53.949Z,16.80
2018-06-13T22:24:21.534Z,16.80
2018-06-13T22:26:49.139Z,16.80
2018-06-13T22:29:16.765Z,16.80
2018-06-13T22:31:44.334Z,16.80
2018-06-13T22:34:11.891Z,16.80
2018-06-13T22:36:39.495Z,16.80
2018-06-13T22:39:09.785Z,16.80
2018-06-13T22:41:37.465Z,16.80
2018-06-13T22:44:05.249Z,16.70
2018-06-13T22:46:32.972Z,16.70
2018-06-13T22:49:00.600Z,16.70
2018-06-13T22:51:28.551Z,16.70
2018-06-13T22:53:56.103Z,16.70
2018-06-13T22:56:23.824Z,16.70
2018-06-13T22:58:51.456Z,16.70
2018-06-13T23:01:19.026Z,16.70
2018-06-13T23:03:46.642Z,16.60
2018-06-13T23:06:14.254Z,16.60
2018-06-13T23:08:41.850Z,16.60
2018-06-13T23:11:09.387Z,16.60
2018-06-13T23:13:37.506Z,16.60
2018-06-13T23:16:05.106Z,16.60
2018-06-13T23:18:32.680Z,16.60
2018-06-13T23:21:00.277Z,16.60
2018-06-13T23:23:27.898Z,16.60
2018-06-13T23:25:56.015Z,16.60
2018-06-13T23:28:23.838Z,16.60
2018-06-13T23:30:51.538Z,16.60
2018-06-13T23:33:19.122Z,16.60
2018-06-13T23:35:46.721Z,16.60
2018-06-13T23:38:14.655Z,16.60
2018-06-13T23:40:42.245Z,16.60
2018-06-13T23:43:09.908Z,16.60
2018-06-13T23:45:37.546Z,16.60
2018-06-13T23:48:05.103Z,16.60
2018-06-13T23:50:32.713Z,16.60
2018-06-13T23:53:00.270Z,16.60
2018-06-13T23:55:28.220Z,16.60
2018-06-13T23:57:55.812Z,16.60
